Lebrija, Spain
Current Conditions -  °F | °C
As of 5:30 PM on Saturday 22 Nov 2014 (Local Time) from LEJR Reporting Station
Clear Clear  
Wind Chill: 73°   Ceiling: Unl
Heat Index: 73°   Visibility: 6mi
Dew Point: 48°   Wind: 9mph
Humidity: 41%   Direction: 90°E
Pressure: 29.65"   Gusts: NA
Location:  36.92°N, 6.08°W
Report Text: LEJR 221630Z 09008KT CAVOK 23/09 Q1004
Loading
Personal Weather Stations






























Interactive Weather Map New forecast layout! Learn more

10-Day Weather Forecast

Advertisements
Track Severe Weather on mobile